Lilly-eva — D5DQ2 — position and weather

sailwx.info

Track history (hours):
 
Tides and Currents Weather Stations Pressure Air Temp Water Temp Dewpoint Dewpoint Depression Visibility Wind Speed Wind Dir Waves Ship Positions

Lilly-eva

Last reported at 2017-Oct-17 20:59 UTC. Time now 2017-Oct-17 22:52 UTC.
Position N 36°18' E 000°06'.

Length 154 m; draft 8.2 m.

Type: Ship (hazmat cat B). MMSI: 211346070.

Date/timePositionNaut miles runAvg speedWind from/ knotsBaromVisibWave heightAir tempDewpointWater temp
2017-Oct-17 20:59N 36°18' E 000°06'814.0
2017-Oct-17 20:24N 36°24' E 000°13'513.8
2017-Oct-17 20:00N 36°27' E 000°18'814.1
2017-Oct-17 19:26N 36°33' E 000°26'614.5
2017-Oct-17 19:00N 36°37' E 000°32'714.8
2017-Oct-17 18:30N 36°42' E 000°38'714.7
2017-Oct-17 18:00N 36°47' E 000°45'714.7
2017-Oct-17 17:30N 36°52' E 000°52'714.6
2017-Oct-17 17:00N 36°53' E 001°01'714.4
2017-Oct-17 16:30N 36°55' E 001°10'814.4
2017-Oct-17 15:57N 36°57' E 001°19'714.7
2017-Oct-17 15:30N 36°59' E 001°27'2815.6
2017-Oct-17 13:42N 37°06' E 002°01'31514.5
2017-Oct-16 16:01N 38°28' E 008°26'114.2
2017-Oct-16 15:58N 38°28' E 008°26'714.6
2017-Oct-16 15:29N 38°30' E 008°35'1014.7
2017-Oct-16 14:49N 38°32' E 008°47'2014.6
2017-Oct-16 13:25N 38°37' E 009°13'814.5
2017-Oct-16 12:52N 38°41' E 009°22'514.5
2017-Oct-16 12:30N 38°43' E 009°28'714.5
2017-Oct-16 11:59N 38°46' E 009°36'5614.9
2017-Oct-16 08:14N 39°13' E 010°40'314.7
2017-Oct-16 08:00N 39°14' E 010°43'2414.6
2017-Oct-16 06:21N 39°25' E 011°11'614.4
2017-Oct-16 05:55N 39°28' E 011°18'614.4
2017-Oct-16 05:30N 39°31' E 011°25'914.4
2017-Oct-16 04:54N 39°35' E 011°35'614.5
2017-Oct-16 04:30N 39°38' E 011°42'714.6
2017-Oct-16 04:00N 39°41' E 011°50'814.4
2017-Oct-16 03:25N 39°45' E 011°59'714.5
2017-Oct-16 02:57N 39°48' E 012°07'1114.6
2017-Oct-16 02:13N 39°53' E 012°20'614.2
2017-Oct-16 01:48N 39°56' E 012°27'714.2
2017-Oct-16 01:17N 39°59' E 012°35'414.4
2017-Oct-16 00:59N 40°01' E 012°40'714.3
2017-Oct-16 00:30N 40°05' E 012°48'714.3
2017-Oct-15 23:58N 40°08' E 012°57'714.3
2017-Oct-15 23:30N 40°11' E 013°05'714.3
2017-Oct-15 22:59N 40°15' E 013°13'714.3
2017-Oct-15 22:29N 40°18' E 013°21'714.3
2017-Oct-15 22:00N 40°21' E 013°29'714.3
2017-Oct-15 21:30N 40°25' E 013°38'714.3
2017-Oct-15 21:00N 40°28' E 013°46'814.4
2017-Oct-15 20:28N 40°32' E 013°55'714.3
2017-Oct-15 20:00N 40°35' E 014°02'714.5
2017-Oct-15 19:31N 40°40' E 014°09'714.5
2017-Oct-15 19:01N 40°46' E 014°15'5 9.2
2017-Oct-15 18:30N 40°50' E 014°18'0 0.4
2017-Oct-15 17:59N 40°50' E 014°18'  
2017-Oct-12 15:27N 40°50' E 014°18'2 4.7
2017-Oct-12 15:00N 40°48' E 014°19'0 0.5
2017-Oct-12 14:20N 40°48' E 014°20'0 0.0
2017-Oct-12 12:47N 40°48' E 014°20'0 0.0
2017-Oct-12 11:53N 40°48' E 014°20'0 0.0
2017-Oct-12 11:23N 40°48' E 014°20'0 0.0
2017-Oct-12 10:53N 40°48' E 014°20'0 0.0
2017-Oct-12 10:23N 40°48' E 014°19'0 0.0
2017-Oct-12 06:11N 40°48' E 014°19'0 0.0
2017-Oct-11 19:08N 40°48' E 014°19'0 0.1
2017-Oct-11 16:59N 40°48' E 014°20'0 0.0
2017-Oct-10 17:53N 40°48' E 014°20'0 0.0
2017-Oct-10 16:50N 40°48' E 014°20'0 0.0
2017-Oct-10 16:20N 40°48' E 014°20'0 0.1
2017-Oct-10 15:50N 40°48' E 014°19'0 0.1
2017-Oct-10 15:23N 40°48' E 014°19'0 0.1
2017-Oct-10 14:53N 40°48' E 014°19'4 4.3
2017-Oct-10 14:00N 40°46' E 014°16'611.8
2017-Oct-10 13:30N 40°42' E 014°10'816.0
2017-Oct-10 13:00N 40°36' E 014°03'28315.7
2017-Oct-09 18:58N 38°29' E 008°35'39815.9
2017-Oct-08 17:54N 36°38' E 000°33'615.7
2017-Oct-08 17:30N 36°34' E 000°27'815.9
2017-Oct-08 17:00N 36°28' E 000°21'816.1
2017-Oct-08 16:30N 36°23' E 000°13'  
Track history (hours):
 
Tides and Currents Weather Stations Pressure Air Temp Water Temp Dewpoint Dewpoint Depression Visibility Wind Speed Wind Dir Waves Ship Positions

Lilly-eva

Last reported at 2017-Oct-17 20:59 UTC. Time now 2017-Oct-17 22:52 UTC.
Position N 36°18' E 000°06'.

Length 154 m; draft 8.2 m.

Type: Ship (hazmat cat B). MMSI: 211346070.

Date/timePositionNaut miles runAvg speedWind from/ knotsBaromVisibWave heightAir tempDewpointWater temp
2017-Oct-17 20:59N 36°18' E 000°06'814.0
2017-Oct-17 20:24N 36°24' E 000°13'513.8
2017-Oct-17 20:00N 36°27' E 000°18'814.1
2017-Oct-17 19:26N 36°33' E 000°26'614.5
2017-Oct-17 19:00N 36°37' E 000°32'714.8
2017-Oct-17 18:30N 36°42' E 000°38'714.7
2017-Oct-17 18:00N 36°47' E 000°45'714.7
2017-Oct-17 17:30N 36°52' E 000°52'714.6
2017-Oct-17 17:00N 36°53' E 001°01'714.4
2017-Oct-17 16:30N 36°55' E 001°10'814.4
2017-Oct-17 15:57N 36°57' E 001°19'714.7
2017-Oct-17 15:30N 36°59' E 001°27'2815.6
2017-Oct-17 13:42N 37°06' E 002°01'31514.5
2017-Oct-16 16:01N 38°28' E 008°26'114.2
2017-Oct-16 15:58N 38°28' E 008°26'714.6
2017-Oct-16 15:29N 38°30' E 008°35'1014.7
2017-Oct-16 14:49N 38°32' E 008°47'2014.6
2017-Oct-16 13:25N 38°37' E 009°13'814.5
2017-Oct-16 12:52N 38°41' E 009°22'514.5
2017-Oct-16 12:30N 38°43' E 009°28'714.5
2017-Oct-16 11:59N 38°46' E 009°36'5614.9
2017-Oct-16 08:14N 39°13' E 010°40'314.7
2017-Oct-16 08:00N 39°14' E 010°43'2414.6
2017-Oct-16 06:21N 39°25' E 011°11'614.4
2017-Oct-16 05:55N 39°28' E 011°18'614.4
2017-Oct-16 05:30N 39°31' E 011°25'914.4
2017-Oct-16 04:54N 39°35' E 011°35'614.5
2017-Oct-16 04:30N 39°38' E 011°42'714.6
2017-Oct-16 04:00N 39°41' E 011°50'814.4
2017-Oct-16 03:25N 39°45' E 011°59'714.5
2017-Oct-16 02:57N 39°48' E 012°07'1114.6
2017-Oct-16 02:13N 39°53' E 012°20'614.2
2017-Oct-16 01:48N 39°56' E 012°27'714.2
2017-Oct-16 01:17N 39°59' E 012°35'414.4
2017-Oct-16 00:59N 40°01' E 012°40'714.3
2017-Oct-16 00:30N 40°05' E 012°48'714.3
2017-Oct-15 23:58N 40°08' E 012°57'714.3
2017-Oct-15 23:30N 40°11' E 013°05'714.3
2017-Oct-15 22:59N 40°15' E 013°13'714.3
2017-Oct-15 22:29N 40°18' E 013°21'714.3
2017-Oct-15 22:00N 40°21' E 013°29'714.3
2017-Oct-15 21:30N 40°25' E 013°38'714.3
2017-Oct-15 21:00N 40°28' E 013°46'814.4
2017-Oct-15 20:28N 40°32' E 013°55'714.3
2017-Oct-15 20:00N 40°35' E 014°02'714.5
2017-Oct-15 19:31N 40°40' E 014°09'714.5
2017-Oct-15 19:01N 40°46' E 014°15'5 9.2
2017-Oct-15 18:30N 40°50' E 014°18'0 0.4
2017-Oct-15 17:59N 40°50' E 014°18'  
2017-Oct-12 15:27N 40°50' E 014°18'2 4.7
2017-Oct-12 15:00N 40°48' E 014°19'0 0.5
2017-Oct-12 14:20N 40°48' E 014°20'0 0.0
2017-Oct-12 12:47N 40°48' E 014°20'0 0.0
2017-Oct-12 11:53N 40°48' E 014°20'0 0.0
2017-Oct-12 11:23N 40°48' E 014°20'0 0.0
2017-Oct-12 10:53N 40°48' E 014°20'0 0.0
2017-Oct-12 10:23N 40°48' E 014°19'0 0.0
2017-Oct-12 06:11N 40°48' E 014°19'0 0.0
2017-Oct-11 19:08N 40°48' E 014°19'0 0.1
2017-Oct-11 16:59N 40°48' E 014°20'0 0.0
2017-Oct-10 17:53N 40°48' E 014°20'0 0.0
2017-Oct-10 16:50N 40°48' E 014°20'0 0.0
2017-Oct-10 16:20N 40°48' E 014°20'0 0.1
2017-Oct-10 15:50N 40°48' E 014°19'0 0.1
2017-Oct-10 15:23N 40°48' E 014°19'0 0.1
2017-Oct-10 14:53N 40°48' E 014°19'4 4.3
2017-Oct-10 14:00N 40°46' E 014°16'611.8
2017-Oct-10 13:30N 40°42' E 014°10'816.0
2017-Oct-10 13:00N 40°36' E 014°03'28315.7
2017-Oct-09 18:58N 38°29' E 008°35'39815.9
2017-Oct-08 17:54N 36°38' E 000°33'615.7
2017-Oct-08 17:30N 36°34' E 000°27'815.9
2017-Oct-08 17:00N 36°28' E 000°21'816.1
2017-Oct-08 16:30N 36°23' E 000°13'  

Dump ship's entire track history